createdAt,value
2018-08-02T00:00:42.701Z,3.93
2018-08-02T00:03:11.153Z,3.33
2018-08-02T00:05:39.671Z,3.60
2018-08-02T00:08:08.299Z,3.63
2018-08-02T00:10:36.825Z,4.13
2018-08-02T00:13:05.367Z,3.67
2018-08-02T00:15:33.866Z,3.83
2018-08-02T00:18:02.391Z,3.97
2018-08-02T00:20:30.819Z,4.17
2018-08-02T00:22:59.365Z,4.33
2018-08-02T00:25:27.499Z,4.20
2018-08-02T00:27:55.999Z,3.73
2018-08-02T00:30:24.526Z,3.90
2018-08-02T00:32:53.399Z,4.10
2018-08-02T00:35:21.534Z,3.70
2018-08-02T00:37:50.043Z,4.30
2018-08-02T00:40:18.202Z,3.80
2018-08-02T00:42:46.658Z,3.60
2018-08-02T00:45:16.176Z,3.90
2018-08-02T00:47:44.629Z,4.27
2018-08-02T00:50:13.132Z,4.13
2018-08-02T00:52:41.595Z,3.97
2018-08-02T00:55:10.101Z,4.53
2018-08-02T00:57:38.623Z,4.40
2018-08-02T01:00:07.099Z,4.50
2018-08-02T01:02:35.270Z,3.47
2018-08-02T01:05:03.444Z,4.67
2018-08-02T01:07:31.615Z,4.80
2018-08-02T01:10:00.172Z,4.97
2018-08-02T01:12:28.671Z,4.07
2018-08-02T01:14:57.119Z,4.20
2018-08-02T01:17:25.656Z,4.80
2018-08-02T01:19:53.802Z,4.80
2018-08-02T01:22:22.297Z,3.90
2018-08-02T01:24:50.481Z,4.23
2018-08-02T01:27:22.354Z,3.40
2018-08-02T01:29:51.419Z,4.30
2018-08-02T01:33:44.103Z,4.30
2018-08-02T01:36:12.276Z,4.03
2018-08-02T01:38:40.427Z,4.67
2018-08-02T01:41:08.876Z,4.50
2018-08-02T01:43:37.379Z,3.93
2018-08-02T01:46:06.340Z,4.37
2018-08-02T01:48:34.855Z,4.90
2018-08-02T01:51:03.378Z,3.80
2018-08-02T01:53:31.804Z,4.63
2018-08-02T01:56:00.272Z,4.47
2018-08-02T01:58:28.771Z,4.17
2018-08-02T02:00:57.275Z,4.27
2018-08-02T02:03:25.727Z,4.63
2018-08-02T02:05:55.295Z,4.90
2018-08-02T02:08:23.752Z,4.57
2018-08-02T02:10:52.216Z,5.10
2018-08-02T02:13:20.695Z,4.90
2018-08-02T02:15:49.250Z,5.00
2018-08-02T02:18:17.759Z,5.13
2018-08-02T02:20:46.232Z,4.23
2018-08-02T02:23:14.708Z,5.10
2018-08-02T02:25:43.197Z,5.03
2018-08-02T02:28:11.679Z,5.10
2018-08-02T02:30:40.171Z,4.70
2018-08-02T02:33:08.641Z,4.73
2018-08-02T02:35:37.112Z,5.27
2018-08-02T02:38:05.766Z,5.40
2018-08-02T02:40:34.182Z,5.10
2018-08-02T02:43:03.625Z,6.10
2018-08-02T02:45:32.083Z,5.90
2018-08-02T02:48:00.575Z,6.47
2018-08-02T02:50:29.127Z,5.60
2018-08-02T02:52:57.636Z,5.70
2018-08-02T02:55:26.112Z,5.77
2018-08-02T02:57:54.584Z,6.20
2018-08-02T03:00:23.077Z,5.70
2018-08-02T03:03:54.850Z,5.83
2018-08-02T03:06:23.328Z,5.50
2018-08-02T03:08:51.797Z,6.33
2018-08-02T03:11:20.311Z,5.90
2018-08-02T03:13:48.803Z,6.10
2018-08-02T03:16:16.992Z,5.40
2018-08-02T03:18:45.122Z,6.37
2018-08-02T03:21:13.637Z,5.20
2018-08-02T03:23:41.771Z,5.70
2018-08-02T03:26:10.272Z,6.23
2018-08-02T03:28:38.780Z,6.43
2018-08-02T03:31:06.934Z,5.60
2018-08-02T03:33:35.395Z,6.13
2018-08-02T03:36:03.879Z,6.30
2018-08-02T03:38:32.405Z,7.10
2018-08-02T03:41:00.546Z,6.20
2018-08-02T03:43:29.078Z,5.90
2018-08-02T03:45:57.612Z,6.50
2018-08-02T03:48:26.079Z,7.10
2018-08-02T03:50:54.574Z,7.30
2018-08-02T03:53:23.024Z,6.63
2018-08-02T03:55:51.731Z,7.30
2018-08-02T03:58:20.188Z,7.43
2018-08-02T04:00:48.733Z,6.23
2018-08-02T04:03:17.186Z,6.10
2018-08-02T04:05:46.193Z,6.47
2018-08-02T04:08:14.657Z,7.70
2018-08-02T04:10:43.188Z,6.60
2018-08-02T04:13:11.651Z,6.97
2018-08-02T04:15:39.810Z,6.90
2018-08-02T04:18:08.245Z,7.10
2018-08-02T04:20:36.743Z,7.00
2018-08-02T04:23:05.292Z,6.80
2018-08-02T04:25:33.700Z,6.57
2018-08-02T04:28:02.191Z,6.90
2018-08-02T04:30:30.664Z,6.50
2018-08-02T04:32:59.156Z,6.80
2018-08-02T04:35:27.620Z,7.03
2018-08-02T04:37:56.140Z,7.90
2018-08-02T04:40:24.584Z,7.57
2018-08-02T04:42:53.941Z,8.27
2018-08-02T04:45:22.094Z,7.67
2018-08-02T04:47:50.553Z,7.43
2018-08-02T04:50:20.059Z,8.53
2018-08-02T04:52:49.568Z,7.37
2018-08-02T04:55:18.063Z,7.80
2018-08-02T04:57:46.511Z,8.40
2018-08-02T05:00:15.047Z,7.43
2018-08-02T05:02:43.503Z,8.30
2018-08-02T05:05:12.021Z,9.00
2018-08-02T05:07:40.178Z,7.57
2018-08-02T05:10:08.664Z,9.07
2018-08-02T05:12:37.103Z,9.77
2018-08-02T05:15:06.079Z,9.87
2018-08-02T05:17:34.628Z,10.63
2018-08-02T05:20:03.051Z,9.50
2018-08-02T05:22:31.585Z,9.87
2018-08-02T05:25:00.114Z,9.30
2018-08-02T05:27:28.615Z,8.90
2018-08-02T05:29:57.087Z,9.43
2018-08-02T05:32:25.592Z,9.27
2018-08-02T05:34:54.051Z,9.90
2018-08-02T05:37:22.566Z,9.30
2018-08-02T05:39:51.008Z,10.90
2018-08-02T05:42:19.505Z,10.40
2018-08-02T05:44:48.002Z,10.50
2018-08-02T05:47:16.477Z,10.00
2018-08-02T05:49:45.004Z,10.20
2018-08-02T05:52:13.454Z,10.57
2018-08-02T05:54:41.926Z,11.00
2018-08-02T05:57:10.376Z,11.07
2018-08-02T05:59:38.886Z,10.37
2018-08-02T06:02:07.663Z,12.10
2018-08-02T06:04:36.274Z,11.30
2018-08-02T06:07:04.952Z,11.57
2018-08-02T06:09:33.455Z,11.00
2018-08-02T06:12:01.947Z,11.53
2018-08-02T06:14:30.098Z,10.80
2018-08-02T06:16:58.575Z,11.40
2018-08-02T06:19:27.029Z,11.97
2018-08-02T06:21:55.591Z,10.90
2018-08-02T06:24:24.007Z,11.37
2018-08-02T06:26:52.567Z,11.97
2018-08-02T06:29:21.079Z,12.23
2018-08-02T06:31:49.599Z,11.73
2018-08-02T06:34:17.755Z,11.30
2018-08-02T06:36:46.227Z,12.07
2018-08-02T06:39:14.935Z,11.00
2018-08-02T06:41:43.458Z,11.00
2018-08-02T06:44:12.105Z,11.90
2018-08-02T06:46:40.631Z,11.10
2018-08-02T06:49:09.268Z,11.90
2018-08-02T06:51:37.764Z,11.93
2018-08-02T06:54:06.074Z,10.30
2018-08-02T06:56:34.582Z,11.43
2018-08-02T07:00:09.448Z,11.00
2018-08-02T07:02:37.903Z,11.10
2018-08-02T07:05:06.457Z,12.13
2018-08-02T07:07:35.047Z,12.17
2018-08-02T07:10:04.168Z,13.17
2018-08-02T07:12:32.767Z,12.33
2018-08-02T07:15:01.247Z,11.37
2018-08-02T07:17:29.777Z,12.33
2018-08-02T07:19:58.187Z,12.00
2018-08-02T07:22:26.728Z,12.10
2018-08-02T07:24:55.156Z,12.67
2018-08-02T07:27:24.694Z,11.87
2018-08-02T07:29:53.183Z,14.63
2018-08-02T07:32:21.673Z,12.20
2018-08-02T07:34:49.814Z,12.40
2018-08-02T07:37:18.299Z,11.50
2018-08-02T07:39:46.767Z,11.27
2018-08-02T07:42:15.259Z,13.07
2018-08-02T07:44:43.722Z,31.10
2018-08-02T07:47:12.205Z,12.17
2018-08-02T07:49:40.707Z,11.47
2018-08-02T07:52:09.267Z,11.57
2018-08-02T07:54:37.775Z,10.67
2018-08-02T07:57:06.841Z,11.80
2018-08-02T07:59:35.335Z,11.40
2018-08-02T08:02:04.186Z,9.53
2018-08-02T08:04:32.604Z,10.63
2018-08-02T08:07:02.523Z,9.60
2018-08-02T08:09:31.051Z,9.50
2018-08-02T08:12:00.419Z,11.87
2018-08-02T08:14:28.889Z,10.50
2018-08-02T08:16:57.822Z,10.07
2018-08-02T08:19:26.280Z,11.23
2018-08-02T08:21:54.763Z,9.57
2018-08-02T08:24:23.287Z,8.60
2018-08-02T08:26:51.927Z,9.43
2018-08-02T08:29:20.828Z,10.90
2018-08-02T08:31:49.272Z,11.93
2018-08-02T08:34:17.776Z,9.73
2018-08-02T08:36:46.235Z,9.53
2018-08-02T08:39:14.733Z,10.57
2018-08-02T08:41:43.203Z,32.73
2018-08-02T08:44:11.716Z,14.20
2018-08-02T08:46:40.239Z,31.67
2018-08-02T08:49:13.142Z,12.70
2018-08-02T08:51:41.635Z,7.63
2018-08-02T08:54:10.112Z,15.60
2018-08-02T08:56:38.687Z,7.97
2018-08-02T08:59:18.531Z,9.37
2018-08-02T09:01:47.049Z,8.57
2018-08-02T09:04:15.531Z,8.50
2018-08-02T09:06:44.019Z,9.17
2018-08-02T09:09:12.501Z,7.77
2018-08-02T09:11:40.955Z,8.90
2018-08-02T09:14:09.433Z,7.70
2018-08-02T09:16:37.923Z,13.37
2018-08-02T09:19:06.420Z,6.93
2018-08-02T09:21:34.928Z,5.70
2018-08-02T09:24:03.408Z,6.80
2018-08-02T09:26:31.938Z,5.90
2018-08-02T09:29:00.463Z,4.70
2018-08-02T09:31:28.944Z,6.13
2018-08-02T09:33:57.415Z,10.53
2018-08-02T09:36:25.901Z,5.90
2018-08-02T09:38:54.371Z,5.77
2018-08-02T09:41:22.884Z,6.07
2018-08-02T09:43:51.327Z,5.20
2018-08-02T09:46:19.902Z,4.10
2018-08-02T09:48:48.331Z,4.97
2018-08-02T09:51:16.772Z,5.00
2018-08-02T09:53:45.338Z,4.20
2018-08-02T09:56:13.840Z,4.70
2018-08-02T09:58:42.439Z,4.67
2018-08-02T10:01:17.552Z,4.60
2018-08-02T10:03:46.033Z,4.80
2018-08-02T10:06:14.548Z,4.07
2018-08-02T10:08:42.990Z,3.87
2018-08-02T10:11:11.630Z,4.37
2018-08-02T10:13:40.132Z,4.10
2018-08-02T10:16:08.422Z,3.50
2018-08-02T10:18:36.838Z,4.43
2018-08-02T10:21:06.805Z,4.77
2018-08-02T10:23:34.963Z,4.50
2018-08-02T10:26:03.128Z,3.63
2018-08-02T10:28:31.578Z,3.67
2018-08-02T10:31:00.196Z,3.97
2018-08-02T10:33:28.666Z,3.50
2018-08-02T10:35:57.210Z,3.00
2018-08-02T10:38:25.905Z,3.20
2018-08-02T10:40:54.472Z,3.27
2018-08-02T10:44:26.271Z,3.30
2018-08-02T10:46:54.759Z,7.80
2018-08-02T10:49:23.276Z,3.40
2018-08-02T10:51:51.828Z,4.03
2018-08-02T10:54:20.319Z,3.20
2018-08-02T10:56:48.790Z,3.77
2018-08-02T10:59:17.329Z,3.03
2018-08-02T11:01:45.744Z,2.47
2018-08-02T11:04:14.263Z,2.60
2018-08-02T11:06:42.931Z,3.23
2018-08-02T11:09:11.425Z,2.63
2018-08-02T11:11:39.864Z,3.20
2018-08-02T11:14:09.272Z,6.50
2018-08-02T11:16:38.387Z,3.07
2018-08-02T11:19:07.180Z,2.53
2018-08-02T11:21:35.687Z,3.03
2018-08-02T11:24:04.859Z,3.00
2018-08-02T11:26:33.646Z,3.20
2018-08-02T11:29:02.299Z,2.63
2018-08-02T11:31:30.899Z,5.40
2018-08-02T11:33:59.592Z,2.73
2018-08-02T11:36:28.091Z,2.67
2018-08-02T11:38:56.957Z,2.93
2018-08-02T11:41:25.459Z,3.50
2018-08-02T11:43:53.998Z,2.60
2018-08-02T11:46:22.463Z,3.60
2018-08-02T11:48:50.912Z,2.60
2018-08-02T11:51:19.400Z,2.80
2018-08-02T11:53:47.975Z,2.80
2018-08-02T11:56:16.494Z,2.83
2018-08-02T11:58:44.947Z,3.10
2018-08-02T12:01:13.471Z,3.37
2018-08-02T12:03:41.887Z,3.27
2018-08-02T12:06:10.437Z,3.30
2018-08-02T12:08:38.951Z,3.47
2018-08-02T12:11:08.514Z,2.93
2018-08-02T12:13:36.774Z,2.60
2018-08-02T12:16:05.476Z,2.40
2018-08-02T12:18:33.749Z,2.60
2018-08-02T12:21:02.191Z,3.20
2018-08-02T12:23:30.664Z,2.63
2018-08-02T12:25:59.194Z,3.20
2018-08-02T12:28:27.665Z,3.00
2018-08-02T12:30:56.342Z,2.63
2018-08-02T12:33:24.999Z,2.80
2018-08-02T12:35:53.466Z,2.97
2018-08-02T12:38:22.003Z,3.63
2018-08-02T12:40:50.456Z,4.70
2018-08-02T12:43:18.984Z,2.93
2018-08-02T12:45:47.440Z,3.03
2018-08-02T12:48:15.942Z,2.60
2018-08-02T12:50:44.571Z,2.57
2018-08-02T12:53:13.279Z,3.13
2018-08-02T12:55:41.752Z,2.97
2018-08-02T12:58:10.245Z,3.17
2018-08-02T13:00:38.724Z,3.93
2018-08-02T13:03:07.439Z,3.47
2018-08-02T13:05:35.607Z,2.90
2018-08-02T13:08:04.139Z,3.00
2018-08-02T13:10:32.756Z,3.62
2018-08-02T13:13:01.137Z,3.72
2018-08-02T13:15:29.697Z,3.15
2018-08-02T13:17:58.203Z,3.50
2018-08-02T13:20:26.841Z,3.90
2018-08-02T13:22:55.274Z,3.92
2018-08-02T13:25:23.796Z,3.33
2018-08-02T13:27:52.260Z,2.95
2018-08-02T13:30:20.442Z,4.10
2018-08-02T13:32:48.899Z,3.33
2018-08-02T13:35:17.531Z,3.45
2018-08-02T13:37:45.972Z,3.75
2018-08-02T13:40:14.456Z,4.10
2018-08-02T13:42:42.747Z,3.72
2018-08-02T13:45:11.217Z,4.25
2018-08-02T13:47:39.375Z,4.00
2018-08-02T13:50:08.196Z,3.95
2018-08-02T13:52:36.950Z,5.05
2018-08-02T13:55:05.719Z,3.45
2018-08-02T13:57:34.285Z,3.92
2018-08-02T14:00:02.865Z,4.67
2018-08-02T14:02:31.511Z,3.70
2018-08-02T14:04:59.666Z,7.03
2018-08-02T14:07:28.184Z,4.90
2018-08-02T14:09:56.679Z,3.40
2018-08-02T14:12:25.249Z,5.47
2018-08-02T14:14:53.483Z,4.95
2018-08-02T14:17:22.132Z,5.30
2018-08-02T14:19:50.563Z,4.90
2018-08-02T14:22:19.127Z,4.15
2018-08-02T14:24:47.621Z,4.62
2018-08-02T14:27:16.131Z,4.25
2018-08-02T14:29:44.568Z,4.20
2018-08-02T14:32:13.108Z,5.58
2018-08-02T14:34:41.553Z,4.37
2018-08-02T14:37:10.444Z,4.60
2018-08-02T14:39:38.996Z,4.10
2018-08-02T14:42:07.741Z,3.70
2018-08-02T14:44:36.807Z,3.47
2018-08-02T14:47:05.316Z,4.40
2018-08-02T14:49:33.912Z,3.90
2018-08-02T14:52:02.408Z,3.23
2018-08-02T14:54:31.023Z,3.20
2018-08-02T14:57:00.639Z,3.70
